createdAt,value
2019-03-22T00:00:33.663Z,22.43
2019-03-22T00:03:05.464Z,23.20
2019-03-22T00:05:38.162Z,22.47
2019-03-22T00:08:09.804Z,22.87
2019-03-22T00:10:41.514Z,22.57
2019-03-22T00:13:13.184Z,22.83
2019-03-22T00:15:44.863Z,23.53
2019-03-22T00:18:16.514Z,22.57
2019-03-22T00:20:48.174Z,22.40
2019-03-22T00:23:20.194Z,22.23
2019-03-22T00:25:51.954Z,21.77
2019-03-22T00:28:23.557Z,22.93
2019-03-22T00:30:55.474Z,23.30
2019-03-22T00:33:27.114Z,24.73
2019-03-22T00:35:58.896Z,26.53
2019-03-22T00:38:30.614Z,28.93
2019-03-22T00:41:02.394Z,31.10
2019-03-22T00:43:34.116Z,32.37
2019-03-22T00:46:05.994Z,29.50
2019-03-22T00:48:37.714Z,29.80
2019-03-22T00:51:13.235Z,30.87
2019-03-22T00:53:45.482Z,29.23
2019-03-22T00:56:17.314Z,28.97
2019-03-22T00:58:49.114Z,27.53
2019-03-22T01:01:24.504Z,26.63
2019-03-22T01:03:56.166Z,24.70
2019-03-22T01:06:27.914Z,24.07
2019-03-22T01:08:59.594Z,25.47
2019-03-22T01:11:31.394Z,24.00
2019-03-22T01:14:03.224Z,23.90
2019-03-22T01:16:34.924Z,24.70
2019-03-22T01:19:06.514Z,24.33
2019-03-22T01:21:38.234Z,24.83
2019-03-22T01:24:10.634Z,23.60
2019-03-22T01:26:42.394Z,24.20
2019-03-22T01:29:14.063Z,23.73
2019-03-22T01:31:45.824Z,24.70
2019-03-22T01:34:17.435Z,24.73
2019-03-22T01:36:50.414Z,24.60
2019-03-22T01:39:22.114Z,24.97
2019-03-22T01:41:53.781Z,26.03
2019-03-22T01:44:25.474Z,24.73
2019-03-22T01:46:57.204Z,24.23
2019-03-22T01:49:28.804Z,24.10
2019-03-22T01:52:01.994Z,25.70
2019-03-22T01:54:34.134Z,26.00
2019-03-22T01:57:05.775Z,26.20
2019-03-22T01:59:37.393Z,26.23
2019-03-22T02:02:09.114Z,25.77
2019-03-22T02:04:40.774Z,26.30
2019-03-22T02:07:12.594Z,26.37
2019-03-22T02:09:44.394Z,27.50
2019-03-22T02:12:16.194Z,26.77
2019-03-22T02:14:47.874Z,27.13
2019-03-22T02:17:19.544Z,27.83
2019-03-22T02:19:51.194Z,25.63
2019-03-22T02:22:22.954Z,27.77
2019-03-22T02:24:54.694Z,27.00
2019-03-22T02:27:26.544Z,27.43
2019-03-22T02:29:58.123Z,27.83
2019-03-22T02:32:29.784Z,28.03
2019-03-22T02:35:01.418Z,27.27
2019-03-22T02:37:33.124Z,28.83
2019-03-22T02:40:05.563Z,28.37
2019-03-22T02:42:37.323Z,27.73
2019-03-22T02:45:12.454Z,26.93
2019-03-22T02:47:44.197Z,26.17
2019-03-22T02:50:19.938Z,28.07
2019-03-22T02:52:49.514Z,27.47
2019-03-22T02:55:21.752Z,28.97
2019-03-22T02:57:53.515Z,28.20
2019-03-22T03:00:25.200Z,27.37
2019-03-22T03:02:56.884Z,27.67
2019-03-22T03:05:28.502Z,28.83
2019-03-22T03:08:00.204Z,30.13
2019-03-22T03:10:31.795Z,29.43
2019-03-22T03:13:03.554Z,30.30
2019-03-22T03:15:35.155Z,31.17
2019-03-22T03:18:06.915Z,31.23
2019-03-22T03:20:38.554Z,30.80
2019-03-22T03:23:10.245Z,31.20
2019-03-22T03:25:42.594Z,31.13
2019-03-22T03:28:14.396Z,29.97
2019-03-22T03:30:46.075Z,29.73
2019-03-22T03:33:17.867Z,29.47
2019-03-22T03:35:49.476Z,29.40
2019-03-22T03:38:21.421Z,30.57
2019-03-22T03:40:53.158Z,29.63
2019-03-22T03:43:28.637Z,28.90
2019-03-22T03:46:00.312Z,30.93
2019-03-22T03:48:31.985Z,30.83
2019-03-22T03:51:03.685Z,32.60
2019-03-22T03:53:41.673Z,32.67
2019-03-22T03:56:13.708Z,32.10
2019-03-22T03:58:52.635Z,31.70
2019-03-22T04:01:20.218Z,33.67
2019-03-22T04:03:51.957Z,32.80
2019-03-22T04:06:23.636Z,33.10
2019-03-22T04:08:55.424Z,30.43
2019-03-22T04:11:26.986Z,32.10
2019-03-22T04:13:58.709Z,33.17
2019-03-22T04:16:30.336Z,34.30
2019-03-22T04:19:01.996Z,35.00
2019-03-22T04:21:33.594Z,36.13
2019-03-22T04:24:05.354Z,34.63
2019-03-22T04:26:38.524Z,35.03
2019-03-22T04:29:10.243Z,36.07
2019-03-22T04:31:41.930Z,33.80
2019-03-22T04:34:13.585Z,35.50
2019-03-22T04:36:45.166Z,35.70
2019-03-22T04:39:16.824Z,35.70
2019-03-22T04:41:48.441Z,35.77
2019-03-22T04:44:20.183Z,34.93
2019-03-22T04:46:51.764Z,35.90
2019-03-22T04:49:23.434Z,36.17
2019-03-22T04:51:55.054Z,36.67
2019-03-22T04:54:33.494Z,36.27
2019-03-22T04:57:05.494Z,38.47
2019-03-22T04:59:37.275Z,39.47
2019-03-22T05:02:08.875Z,39.57
2019-03-22T05:04:40.664Z,43.67
2019-03-22T05:07:12.257Z,44.33
2019-03-22T05:09:43.962Z,46.27
2019-03-22T05:12:15.825Z,46.00
2019-03-22T05:14:47.882Z,46.47
2019-03-22T05:17:19.644Z,47.30
2019-03-22T05:19:51.844Z,49.23
2019-03-22T05:22:23.754Z,49.93
2019-03-22T05:24:55.574Z,51.63
2019-03-22T05:27:28.974Z,53.57
2019-03-22T05:30:00.774Z,53.20
2019-03-22T05:32:32.674Z,52.30
2019-03-22T05:35:07.322Z,51.30
2019-03-22T05:37:38.694Z,53.77
2019-03-22T05:40:11.726Z,49.50
2019-03-22T05:42:43.786Z,49.03
2019-03-22T05:45:15.714Z,50.00
2019-03-22T05:47:47.595Z,50.53
2019-03-22T05:50:19.452Z,48.73
2019-03-22T05:52:57.235Z,48.27
2019-03-22T05:55:29.204Z,44.77
2019-03-22T05:58:01.304Z,49.10
2019-03-22T06:00:33.004Z,46.33
2019-03-22T06:03:04.874Z,50.70
2019-03-22T06:05:36.822Z,47.37
2019-03-22T06:08:08.492Z,49.57
2019-03-22T06:10:41.516Z,48.73
2019-03-22T06:13:13.551Z,46.50
2019-03-22T06:15:45.394Z,47.83
2019-03-22T06:18:17.064Z,45.13
2019-03-22T06:20:48.775Z,46.40
2019-03-22T06:23:20.354Z,46.97
2019-03-22T06:25:52.261Z,48.33
2019-03-22T06:28:24.405Z,44.93
2019-03-22T06:30:56.226Z,47.27
2019-03-22T06:33:27.864Z,46.53
2019-03-22T06:35:59.664Z,45.57
2019-03-22T06:38:32.654Z,46.63
2019-03-22T06:41:04.744Z,46.60
2019-03-22T06:43:36.444Z,46.23
2019-03-22T06:46:08.316Z,43.77
2019-03-22T06:48:39.984Z,44.50
2019-03-22T06:51:12.224Z,42.60
2019-03-22T06:53:43.789Z,44.83
2019-03-22T06:56:19.322Z,44.30
2019-03-22T06:58:51.482Z,40.13
2019-03-22T07:01:23.322Z,40.67
2019-03-22T07:03:54.965Z,40.93
2019-03-22T07:06:26.707Z,39.27
2019-03-22T07:08:58.924Z,38.63
2019-03-22T07:11:30.784Z,37.17
2019-03-22T07:14:03.924Z,37.60
2019-03-22T07:16:35.587Z,34.97
2019-03-22T07:19:07.225Z,36.93
2019-03-22T07:21:39.044Z,34.67
2019-03-22T07:24:10.784Z,33.93
2019-03-22T07:26:42.842Z,33.70
2019-03-22T07:29:15.174Z,33.97
2019-03-22T07:31:46.914Z,31.63
2019-03-22T07:34:18.494Z,32.60
2019-03-22T07:36:50.195Z,32.20
2019-03-22T07:39:21.914Z,33.00
2019-03-22T07:41:53.644Z,30.27
2019-03-22T07:44:25.292Z,29.80
2019-03-22T07:46:57.072Z,29.67
2019-03-22T07:49:28.942Z,29.27
2019-03-22T07:52:00.644Z,28.30
2019-03-22T07:54:32.274Z,28.87
2019-03-22T07:57:10.552Z,29.40
2019-03-22T07:59:43.874Z,29.32
2019-03-22T08:02:15.725Z,26.93
2019-03-22T08:04:47.327Z,25.93
2019-03-22T08:07:19.154Z,24.90
2019-03-22T08:09:51.392Z,24.93
2019-03-22T08:12:23.354Z,23.90
2019-03-22T08:14:54.963Z,21.60
2019-03-22T08:17:26.788Z,21.43
2019-03-22T08:19:59.712Z,20.93
2019-03-22T08:22:31.458Z,19.70
2019-03-22T08:25:03.447Z,20.20
2019-03-22T08:27:38.799Z,18.37
2019-03-22T08:30:11.024Z,17.67
2019-03-22T08:32:42.770Z,17.93
2019-03-22T08:35:14.522Z,17.13
2019-03-22T08:37:52.392Z,15.60
2019-03-22T08:40:19.725Z,14.33
2019-03-22T08:42:51.497Z,15.10
2019-03-22T08:45:23.435Z,14.67
2019-03-22T08:47:55.422Z,13.33
2019-03-22T08:50:27.065Z,13.17
2019-03-22T08:53:00.184Z,13.00
2019-03-22T08:55:31.909Z,12.07
2019-03-22T08:58:05.095Z,11.23
2019-03-22T09:00:39.443Z,10.90
2019-03-22T09:03:11.120Z,10.70
2019-03-22T09:05:42.984Z,10.77
2019-03-22T09:08:16.098Z,10.00
2019-03-22T09:10:48.126Z,9.47
2019-03-22T09:13:19.765Z,9.07
2019-03-22T09:15:51.640Z,9.37
2019-03-22T09:18:23.494Z,8.10
2019-03-22T09:20:55.514Z,6.70
2019-03-22T09:23:27.605Z,5.23
2019-03-22T09:25:59.585Z,4.80
2019-03-22T09:28:31.494Z,5.40
2019-03-22T09:31:10.390Z,5.13
2019-03-22T09:33:41.299Z,5.20
2019-03-22T09:36:13.292Z,5.07
2019-03-22T09:38:45.368Z,5.03
2019-03-22T09:41:17.004Z,5.67
2019-03-22T09:43:49.034Z,5.27
2019-03-22T09:46:20.749Z,4.33
2019-03-22T09:48:53.680Z,3.57
2019-03-22T09:51:25.347Z,3.70
2019-03-22T09:53:57.547Z,4.13
2019-03-22T09:56:29.369Z,3.60
2019-03-22T09:59:04.724Z,3.20
2019-03-22T10:01:37.226Z,3.17
2019-03-22T10:04:09.364Z,3.57
2019-03-22T10:06:41.607Z,3.63
2019-03-22T10:09:13.479Z,3.37
2019-03-22T10:11:45.374Z,3.30
2019-03-22T10:14:17.410Z,2.80
2019-03-22T10:16:49.405Z,2.47
2019-03-22T10:19:21.357Z,2.80
2019-03-22T10:21:53.078Z,2.80
2019-03-22T10:24:25.199Z,2.87
2019-03-22T10:26:56.939Z,2.53
2019-03-22T10:29:28.967Z,2.50
2019-03-22T10:32:02.345Z,2.97
2019-03-22T10:34:34.295Z,2.30
2019-03-22T10:37:06.084Z,2.20
2019-03-22T10:39:38.135Z,2.20
2019-03-22T10:42:09.734Z,2.37
2019-03-22T10:44:41.904Z,2.10
2019-03-22T10:47:13.751Z,2.53
2019-03-22T10:49:45.753Z,2.50
2019-03-22T10:52:17.474Z,2.23
2019-03-22T10:54:49.547Z,2.13
2019-03-22T10:57:22.234Z,2.83
2019-03-22T10:59:58.004Z,2.37
2019-03-22T11:02:30.465Z,2.13
2019-03-22T11:05:02.516Z,2.27
2019-03-22T11:07:34.355Z,2.30
2019-03-22T11:10:07.134Z,2.60
2019-03-22T11:12:39.114Z,2.60
2019-03-22T11:15:12.005Z,2.50
2019-03-22T11:17:43.633Z,2.57
2019-03-22T11:20:15.774Z,2.80
2019-03-22T11:22:47.564Z,2.70
2019-03-22T11:25:19.605Z,2.33
2019-03-22T11:27:54.224Z,2.50
2019-03-22T11:30:25.914Z,1.90
2019-03-22T11:32:58.555Z,2.07
2019-03-22T11:35:30.592Z,2.60
2019-03-22T11:38:02.412Z,2.50
2019-03-22T11:40:40.944Z,2.60
2019-03-22T11:43:13.704Z,2.90
2019-03-22T11:45:45.398Z,2.77
2019-03-22T11:48:18.274Z,2.53
2019-03-22T11:50:50.173Z,2.50
2019-03-22T11:53:21.814Z,2.80
2019-03-22T11:55:53.534Z,2.87
2019-03-22T11:58:25.094Z,2.60
2019-03-22T12:00:59.396Z,2.77
2019-03-22T12:03:31.614Z,2.80
2019-03-22T12:06:03.716Z,2.93
2019-03-22T12:08:35.482Z,3.20
2019-03-22T12:11:07.335Z,3.40
2019-03-22T12:13:39.004Z,3.33
2019-03-22T12:16:10.922Z,3.20
2019-03-22T12:18:42.864Z,2.70
2019-03-22T12:21:14.754Z,2.90
2019-03-22T12:23:46.544Z,2.50
2019-03-22T12:26:18.415Z,2.37
2019-03-22T12:28:50.114Z,2.17
2019-03-22T12:31:22.074Z,2.23
2019-03-22T12:33:54.324Z,2.40
2019-03-22T12:36:26.154Z,1.83
2019-03-22T12:38:57.975Z,2.40
2019-03-22T12:41:29.669Z,2.57
2019-03-22T12:44:01.415Z,2.33
2019-03-22T12:46:33.074Z,2.37
2019-03-22T12:49:04.714Z,2.43
2019-03-22T12:51:36.394Z,2.60
2019-03-22T12:54:08.226Z,2.37
2019-03-22T12:56:39.953Z,2.30
2019-03-22T12:59:11.634Z,2.50
2019-03-22T13:01:46.514Z,2.30
2019-03-22T13:04:18.666Z,2.63
2019-03-22T13:06:50.585Z,2.60
2019-03-22T13:09:22.883Z,2.03
2019-03-22T13:11:54.744Z,2.90
2019-03-22T13:14:26.304Z,2.20
2019-03-22T13:16:58.014Z,2.07
2019-03-22T13:19:29.674Z,1.60
2019-03-22T13:22:01.457Z,2.13
2019-03-22T13:24:33.204Z,1.63
2019-03-22T13:27:04.934Z,2.13
2019-03-22T13:29:36.723Z,1.77
2019-03-22T13:32:08.503Z,2.13
2019-03-22T13:34:40.854Z,2.30
2019-03-22T13:37:12.594Z,2.10
2019-03-22T13:39:44.473Z,2.27
2019-03-22T13:42:16.474Z,1.80
2019-03-22T13:44:48.064Z,1.80
2019-03-22T13:47:20.313Z,1.77
2019-03-22T13:49:51.993Z,3.33
2019-03-22T13:52:23.855Z,2.30
2019-03-22T13:54:55.563Z,2.50
2019-03-22T13:57:27.516Z,3.00
2019-03-22T13:59:59.513Z,2.57
2019-03-22T14:02:31.543Z,2.33
2019-03-22T14:05:07.904Z,2.93
2019-03-22T14:07:47.074Z,3.20
2019-03-22T14:10:29.601Z,2.00
2019-03-22T14:13:02.085Z,2.50
2019-03-22T14:15:34.814Z,2.57
2019-03-22T14:18:06.703Z,4.30
2019-03-22T14:20:48.204Z,24.77
2019-03-22T14:23:20.073Z,4.87
2019-03-22T14:25:51.745Z,15.03
2019-03-22T14:28:23.613Z,30.27
2019-03-22T14:30:55.538Z,6.53
2019-03-22T14:33:27.284Z,23.90
2019-03-22T14:35:59.569Z,5.93
2019-03-22T14:38:31.415Z,2.57
2019-03-22T14:41:03.064Z,2.30
2019-03-22T14:43:35.478Z,2.20
2019-03-22T14:46:08.226Z,2.50
2019-03-22T14:48:39.934Z,2.40
2019-03-22T14:51:11.544Z,2.90
2019-03-22T14:53:43.278Z,2.67
2019-03-22T14:56:14.934Z,2.80
2019-03-22T14:58:47.884Z,3.27
2019-03-22T15:01:19.505Z,2.90
2019-03-22T15:03:52.473Z,3.63
2019-03-22T15:06:24.124Z,2.93
2019-03-22T15:08:59.509Z,2.77
2019-03-22T15:11:31.254Z,2.80
2019-03-22T15:14:23.812Z,2.23
2019-03-22T15:17:13.982Z,2.47
2019-03-22T15:20:04.358Z,2.47
2019-03-22T15:22:40.674Z,2.70
2019-03-22T15:25:19.914Z,3.93
2019-03-22T15:27:53.338Z,3.17
2019-03-22T15:30:32.966Z,3.10
2019-03-22T15:33:34.108Z,2.70
2019-03-22T15:36:00.174Z,2.70
2019-03-22T15:38:50.650Z,3.00
2019-03-22T15:41:22.884Z,3.05
2019-03-22T15:43:54.507Z,2.80
2019-03-22T15:46:26.937Z,4.00
2019-03-22T15:48:58.624Z,13.27
2019-03-22T15:51:30.434Z,5.43
2019-03-22T15:54:03.014Z,3.13
2019-03-22T15:56:34.687Z,2.57
2019-03-22T15:59:06.606Z,2.40
2019-03-22T16:01:39.004Z,2.87
2019-03-22T16:04:10.884Z,2.87
2019-03-22T16:06:42.799Z,2.77
2019-03-22T16:09:16.654Z,3.07
2019-03-22T16:11:48.454Z,2.77
2019-03-22T16:14:20.197Z,3.63
2019-03-22T16:16:53.042Z,4.37
2019-03-22T16:19:24.954Z,3.73
2019-03-22T16:21:56.806Z,3.17
2019-03-22T16:24:30.364Z,7.10
2019-03-22T16:27:02.594Z,17.93
2019-03-22T16:29:34.347Z,11.80
2019-03-22T16:32:06.129Z,4.10
2019-03-22T16:34:38.909Z,15.33
2019-03-22T16:37:12.004Z,18.67
2019-03-22T16:39:43.571Z,11.77
2019-03-22T16:42:15.344Z,15.03
2019-03-22T16:44:46.983Z,13.47
2019-03-22T16:47:20.543Z,10.03
2019-03-22T16:49:52.493Z,9.83
2019-03-22T16:52:24.346Z,11.33
2019-03-22T16:54:56.032Z,11.30
2019-03-22T16:57:27.928Z,12.53
2019-03-22T16:59:59.729Z,12.13
2019-03-22T17:02:32.639Z,12.90
2019-03-22T17:05:05.394Z,14.77
2019-03-22T17:07:37.492Z,13.10
2019-03-22T17:10:13.965Z,15.63
2019-03-22T17:12:46.024Z,16.33
2019-03-22T17:15:17.694Z,17.37
2019-03-22T17:17:49.765Z,17.70
2019-03-22T17:20:21.314Z,21.27
2019-03-22T17:22:53.190Z,29.17
2019-03-22T17:25:24.872Z,20.70
2019-03-22T17:27:56.884Z,17.43
2019-03-22T17:30:28.605Z,34.07
2019-03-22T17:33:00.632Z,39.33
2019-03-22T17:35:32.294Z,34.67
2019-03-22T17:38:04.064Z,23.83
2019-03-22T17:40:35.644Z,23.67
2019-03-22T17:43:07.634Z,41.93
2019-03-22T17:45:39.344Z,15.17
2019-03-22T17:48:11.876Z,16.52
2019-03-22T17:50:43.782Z,14.70
2019-03-22T17:53:16.652Z,18.27
2019-03-22T17:55:48.452Z,13.10
2019-03-22T17:58:21.348Z,11.57
2019-03-22T18:00:53.277Z,9.23
2019-03-22T18:03:25.040Z,10.70
2019-03-22T18:05:56.646Z,13.00
2019-03-22T18:08:28.435Z,14.93
2019-03-22T18:11:07.254Z,15.77
2019-03-22T18:13:38.915Z,17.67
2019-03-22T18:16:10.515Z,11.23
2019-03-22T18:18:43.035Z,27.17
2019-03-22T18:21:14.695Z,24.37
2019-03-22T18:23:46.395Z,16.57
2019-03-22T18:26:18.154Z,19.63
2019-03-22T18:28:50.094Z,15.73
2019-03-22T18:31:21.937Z,28.30
2019-03-22T18:33:57.214Z,18.73
2019-03-22T18:36:28.955Z,17.07
2019-03-22T18:39:00.751Z,49.73
2019-03-22T18:41:32.440Z,32.57
2019-03-22T18:44:04.094Z,58.60
2019-03-22T18:46:35.766Z,45.77
2019-03-22T18:49:07.941Z,29.30
2019-03-22T18:51:39.615Z,24.23
2019-03-22T18:54:11.479Z,26.63
2019-03-22T18:56:43.111Z,20.00
2019-03-22T18:59:14.925Z,22.47
2019-03-22T19:01:46.602Z,28.57
2019-03-22T19:04:18.434Z,25.63
2019-03-22T19:06:50.455Z,26.73
2019-03-22T19:09:22.394Z,29.07
2019-03-22T19:11:55.674Z,23.27
2019-03-22T19:14:27.315Z,25.93
2019-03-22T19:16:58.995Z,33.73
2019-03-22T19:19:31.142Z,37.57
2019-03-22T19:22:03.776Z,45.77
2019-03-22T19:24:35.495Z,83.77
2019-03-22T19:27:07.115Z,52.17
2019-03-22T19:29:38.914Z,54.73
2019-03-22T19:32:13.762Z,58.57
2019-03-22T19:34:53.911Z,72.23
2019-03-22T19:37:18.244Z,63.70
2019-03-22T19:39:50.034Z,69.07
2019-03-22T19:42:21.806Z,64.47
2019-03-22T19:44:53.534Z,53.20
2019-03-22T19:47:25.309Z,55.10
2019-03-22T19:49:57.675Z,54.13
2019-03-22T19:52:29.333Z,64.83
2019-03-22T19:55:01.052Z,64.03
2019-03-22T19:57:32.634Z,66.83
2019-03-22T20:00:05.484Z,67.90
2019-03-22T20:02:37.194Z,72.57
2019-03-22T20:05:08.875Z,76.27
2019-03-22T20:07:40.605Z,87.60
2019-03-22T20:10:12.727Z,85.00
2019-03-22T20:12:48.560Z,88.00
2019-03-22T20:15:20.407Z,68.27
2019-03-22T20:17:52.326Z,87.97
2019-03-22T20:20:27.665Z,58.07
2019-03-22T20:23:00.735Z,58.87
2019-03-22T20:25:33.864Z,52.13
2019-03-22T20:28:05.735Z,51.37
2019-03-22T20:30:37.424Z,49.27
2019-03-22T20:33:09.192Z,50.80
2019-03-22T20:35:41.085Z,52.10
2019-03-22T20:38:12.834Z,48.33
2019-03-22T20:40:44.624Z,50.03
2019-03-22T20:43:16.235Z,52.27
2019-03-22T20:45:48.006Z,70.63
2019-03-22T20:48:24.616Z,56.87
2019-03-22T20:51:14.747Z,61.17
2019-03-22T20:53:47.005Z,57.43
2019-03-22T20:56:18.704Z,59.63
2019-03-22T20:58:50.349Z,59.57
2019-03-22T21:01:22.034Z,51.47
2019-03-22T21:03:53.683Z,58.83
2019-03-22T21:06:25.644Z,52.03
2019-03-22T21:08:57.374Z,54.90
2019-03-22T21:11:29.164Z,54.60
2019-03-22T21:14:03.242Z,59.17
2019-03-22T21:16:34.953Z,63.43
2019-03-22T21:19:09.549Z,76.73
2019-03-22T21:21:41.214Z,93.70
2019-03-22T21:24:13.474Z,82.83
2019-03-22T21:26:45.284Z,70.07
2019-03-22T21:29:16.994Z,70.37
2019-03-22T21:31:48.774Z,95.57
2019-03-22T21:34:23.264Z,81.80
2019-03-22T21:36:54.986Z,75.67
2019-03-22T21:39:26.684Z,69.33
2019-03-22T21:41:58.355Z,63.17
2019-03-22T21:44:29.995Z,62.30
2019-03-22T21:47:01.756Z,65.97
2019-03-22T21:49:33.474Z,75.03
2019-03-22T21:52:05.144Z,68.80
2019-03-22T21:54:37.104Z,85.30
2019-03-22T21:57:08.774Z,70.83
2019-03-22T21:59:40.364Z,96.77
2019-03-22T22:02:12.115Z,125.90
2019-03-22T22:04:43.686Z,103.80
2019-03-22T22:07:15.384Z,104.13
2019-03-22T22:09:46.974Z,99.97
2019-03-22T22:12:18.624Z,97.83
2019-03-22T22:14:51.665Z,97.30
2019-03-22T22:17:23.334Z,88.00
2019-03-22T22:19:55.000Z,75.17
2019-03-22T22:22:26.766Z,69.83
2019-03-22T22:24:58.906Z,71.27
2019-03-22T22:27:30.794Z,68.07
2019-03-22T22:30:03.694Z,71.10
2019-03-22T22:32:35.354Z,64.60
2019-03-22T22:35:07.186Z,75.17
2019-03-22T22:37:38.874Z,69.47
2019-03-22T22:40:11.388Z,69.70
2019-03-22T22:42:43.074Z,81.93
2019-03-22T22:45:15.980Z,77.33
2019-03-22T22:47:47.774Z,74.37
2019-03-22T22:50:19.564Z,68.57
2019-03-22T22:52:51.574Z,66.83
2019-03-22T22:55:23.634Z,68.03
2019-03-22T22:57:55.304Z,77.50
2019-03-22T23:00:28.035Z,74.40
2019-03-22T23:03:01.494Z,76.33
2019-03-22T23:05:33.126Z,79.57
2019-03-22T23:08:04.924Z,80.47
2019-03-22T23:10:36.884Z,82.53
2019-03-22T23:13:08.584Z,76.67
2019-03-22T23:15:42.234Z,76.03
2019-03-22T23:18:14.077Z,86.23
2019-03-22T23:20:46.001Z,83.40
2019-03-22T23:28:30.525Z,89.90
2019-03-22T23:31:02.795Z,84.70
2019-03-22T23:33:34.532Z,91.33
2019-03-22T23:36:06.173Z,93.80
2019-03-22T23:38:37.914Z,94.33
2019-03-22T23:41:09.504Z,96.53
2019-03-22T23:43:42.242Z,94.77
2019-03-22T23:46:13.875Z,95.97
2019-03-22T23:48:45.674Z,100.67
2019-03-22T23:51:17.515Z,104.33
2019-03-22T23:53:49.234Z,101.33
2019-03-22T23:56:20.842Z,103.63
2019-03-22T23:58:52.583Z,105.73
